createdAt,value
2019-03-29T00:01:17.338Z,21.11
2019-03-29T00:03:50.289Z,21.07
2019-03-29T00:06:24.058Z,20.98
2019-03-29T00:08:56.947Z,20.93
2019-03-29T00:11:29.922Z,20.88
2019-03-29T00:14:02.754Z,20.85
2019-03-29T00:16:35.767Z,20.82
2019-03-29T00:19:08.663Z,20.80
2019-03-29T00:21:41.673Z,20.79
2019-03-29T00:24:15.071Z,20.77
2019-03-29T00:26:48.261Z,20.75
2019-03-29T00:29:21.138Z,20.71
2019-03-29T00:31:54.724Z,20.70
2019-03-29T00:34:27.730Z,20.67
2019-03-29T00:37:00.698Z,20.60
2019-03-29T00:39:33.656Z,20.55
2019-03-29T00:42:06.565Z,20.49
2019-03-29T00:44:39.463Z,20.45
2019-03-29T00:47:12.508Z,20.40
2019-03-29T00:49:45.396Z,20.36
2019-03-29T00:52:18.410Z,20.30
2019-03-29T00:54:51.372Z,20.25
2019-03-29T00:57:25.282Z,20.22
2019-03-29T00:59:58.197Z,20.19
2019-03-29T01:02:31.170Z,20.12
2019-03-29T01:05:04.657Z,20.07
2019-03-29T01:07:42.587Z,20.05
2019-03-29T01:10:15.840Z,20.04
2019-03-29T01:12:49.720Z,20.05
2019-03-29T01:15:23.466Z,20.04
2019-03-29T01:17:57.286Z,20.01
2019-03-29T01:20:30.494Z,19.96
2019-03-29T01:23:03.821Z,19.93
2019-03-29T01:25:37.055Z,19.88
2019-03-29T01:28:11.252Z,19.85
2019-03-29T01:30:45.353Z,19.83
2019-03-29T01:33:20.492Z,19.80
2019-03-29T01:35:53.804Z,19.80
2019-03-29T01:38:27.133Z,19.80
2019-03-29T01:41:01.131Z,19.80
2019-03-29T01:43:36.031Z,19.81
2019-03-29T01:46:09.717Z,19.84
2019-03-29T01:48:43.059Z,19.83
2019-03-29T01:51:16.210Z,19.85
2019-03-29T01:53:49.575Z,19.84
2019-03-29T01:56:22.865Z,19.81
2019-03-29T01:58:56.134Z,19.82
2019-03-29T02:01:29.383Z,19.85
2019-03-29T02:04:05.786Z,19.88
2019-03-29T02:06:37.899Z,19.89
2019-03-29T02:09:11.776Z,19.90
2019-03-29T02:11:45.103Z,19.89
2019-03-29T02:14:18.380Z,19.86
2019-03-29T02:16:51.523Z,19.89
2019-03-29T02:19:24.906Z,19.90
2019-03-29T02:21:58.186Z,19.92
2019-03-29T02:24:31.558Z,19.92
2019-03-29T02:27:04.801Z,19.93
2019-03-29T02:29:38.147Z,19.94
2019-03-29T02:32:11.451Z,19.94
2019-03-29T02:34:44.649Z,19.94
2019-03-29T02:37:18.043Z,19.93
2019-03-29T02:39:51.449Z,19.89
2019-03-29T02:42:24.803Z,19.88
2019-03-29T02:44:58.102Z,19.88
2019-03-29T02:47:31.432Z,19.89
2019-03-29T02:50:06.031Z,19.89
2019-03-29T02:52:39.362Z,19.90
2019-03-29T02:55:13.038Z,19.91
2019-03-29T02:57:46.481Z,19.93
2019-03-29T03:00:19.988Z,19.96
2019-03-29T03:02:53.297Z,19.98
2019-03-29T03:05:26.861Z,20.00
2019-03-29T03:08:00.183Z,20.01
2019-03-29T03:10:34.310Z,20.02
2019-03-29T03:13:08.004Z,20.02
2019-03-29T03:15:41.306Z,20.01
2019-03-29T03:18:14.797Z,20.04
2019-03-29T03:20:47.978Z,20.03
2019-03-29T03:23:21.288Z,20.03
2019-03-29T03:25:54.559Z,20.04
2019-03-29T03:28:28.093Z,20.07
2019-03-29T03:31:01.364Z,20.09
2019-03-29T03:33:34.689Z,20.11
2019-03-29T03:36:07.934Z,20.11
2019-03-29T03:38:41.219Z,20.13
2019-03-29T03:41:14.452Z,20.15
2019-03-29T03:43:47.795Z,20.17
2019-03-29T03:46:21.096Z,20.17
2019-03-29T03:48:54.502Z,20.18
2019-03-29T03:51:27.964Z,20.20
2019-03-29T03:54:01.264Z,20.22
2019-03-29T03:56:36.066Z,20.25
2019-03-29T03:59:09.670Z,20.26
2019-03-29T04:01:43.030Z,20.27
2019-03-29T04:04:16.450Z,20.29
2019-03-29T04:06:49.663Z,20.31
2019-03-29T04:09:23.131Z,20.31
2019-03-29T04:11:56.556Z,20.31
2019-03-29T04:14:29.999Z,20.33
2019-03-29T04:17:03.284Z,20.35
2019-03-29T04:19:36.575Z,20.38
2019-03-29T04:22:09.910Z,20.40
2019-03-29T04:24:43.399Z,20.45
2019-03-29T04:27:16.754Z,20.51
2019-03-29T04:29:50.230Z,20.54
2019-03-29T04:32:23.565Z,20.57
2019-03-29T04:34:57.091Z,20.63
2019-03-29T04:37:30.338Z,20.68
2019-03-29T04:40:08.070Z,20.73
2019-03-29T04:42:38.588Z,20.79
2019-03-29T04:45:12.119Z,20.87
2019-03-29T04:47:45.380Z,20.96
2019-03-29T04:50:18.877Z,21.05
2019-03-29T04:52:52.373Z,21.11
2019-03-29T04:55:25.952Z,21.18
2019-03-29T04:57:59.132Z,21.23
2019-03-29T05:00:32.421Z,21.26
2019-03-29T05:03:05.611Z,21.29
2019-03-29T05:05:39.254Z,21.33
2019-03-29T05:08:12.559Z,21.36
2019-03-29T05:10:46.248Z,21.41
2019-03-29T05:13:19.944Z,21.46
2019-03-29T05:15:53.946Z,21.51
2019-03-29T05:18:27.080Z,21.55
2019-03-29T05:21:00.359Z,21.59
2019-03-29T05:23:33.625Z,21.66
2019-03-29T05:26:07.089Z,21.74
2019-03-29T05:28:40.321Z,21.78
2019-03-29T05:31:14.240Z,21.83
2019-03-29T05:33:47.538Z,21.86
2019-03-29T05:36:20.863Z,21.84
2019-03-29T05:38:54.128Z,21.85
2019-03-29T05:41:27.449Z,21.86
2019-03-29T05:44:00.834Z,21.88
2019-03-29T05:46:34.209Z,21.90
2019-03-29T05:49:07.423Z,21.93
2019-03-29T05:51:40.843Z,21.96
2019-03-29T05:54:14.055Z,22.00
2019-03-29T05:56:47.595Z,22.05
2019-03-29T05:59:21.116Z,22.08
2019-03-29T06:01:54.491Z,22.12
2019-03-29T06:04:27.981Z,22.16
2019-03-29T06:07:01.477Z,22.19
2019-03-29T06:09:35.198Z,22.24
2019-03-29T06:12:08.774Z,22.31
2019-03-29T06:14:42.564Z,22.39
2019-03-29T06:17:16.153Z,22.45
2019-03-29T06:19:49.863Z,22.50
2019-03-29T06:22:23.455Z,22.58
2019-03-29T06:24:57.036Z,22.60
2019-03-29T06:27:30.679Z,22.65
2019-03-29T06:30:04.231Z,22.70
2019-03-29T06:32:37.653Z,22.75
2019-03-29T06:35:11.435Z,22.82
2019-03-29T06:37:47.104Z,22.88
2019-03-29T06:40:28.155Z,22.95
2019-03-29T06:43:01.872Z,22.99
2019-03-29T06:45:47.414Z,23.05
2019-03-29T06:48:11.405Z,23.11
2019-03-29T06:50:44.827Z,23.15
2019-03-29T06:53:18.505Z,23.22
2019-03-29T06:55:52.041Z,23.27
2019-03-29T06:58:25.432Z,23.34
2019-03-29T07:00:59.299Z,23.40
2019-03-29T07:03:34.219Z,23.43
2019-03-29T07:06:07.800Z,23.46
2019-03-29T07:08:41.677Z,23.48
2019-03-29T07:11:17.643Z,23.51
2019-03-29T07:13:57.487Z,23.51
2019-03-29T07:16:25.599Z,23.49
2019-03-29T07:18:59.358Z,23.51
2019-03-29T07:21:32.672Z,23.55
2019-03-29T07:24:06.075Z,23.59
2019-03-29T07:26:39.602Z,23.63
2019-03-29T07:29:13.744Z,23.67
2019-03-29T07:31:47.171Z,23.68
2019-03-29T07:34:20.846Z,23.69
2019-03-29T07:36:54.280Z,23.67
2019-03-29T07:39:29.422Z,23.65
2019-03-29T07:42:03.034Z,23.61
2019-03-29T07:44:36.782Z,23.58
2019-03-29T07:47:10.563Z,23.58
2019-03-29T07:49:44.208Z,23.59
2019-03-29T07:52:18.121Z,23.60
2019-03-29T07:54:52.194Z,23.61
2019-03-29T07:57:26.040Z,23.61
2019-03-29T07:59:59.782Z,23.60
2019-03-29T08:02:35.108Z,23.54
2019-03-29T08:05:09.225Z,23.52
2019-03-29T08:07:43.231Z,23.48
2019-03-29T08:10:25.788Z,23.40
2019-03-29T08:12:52.502Z,23.32
2019-03-29T08:15:26.091Z,23.21
2019-03-29T08:18:01.544Z,23.15
2019-03-29T08:20:43.629Z,23.12
2019-03-29T08:23:10.355Z,23.10
2019-03-29T08:25:43.832Z,23.12
2019-03-29T08:28:17.073Z,23.14
2019-03-29T08:30:50.659Z,23.13
2019-03-29T08:33:24.560Z,23.11
2019-03-29T08:35:58.522Z,23.13
2019-03-29T08:38:32.611Z,23.15
2019-03-29T08:41:06.084Z,23.22
2019-03-29T08:43:39.964Z,23.31
2019-03-29T08:46:13.540Z,23.42
2019-03-29T08:48:47.350Z,23.53
2019-03-29T08:51:21.147Z,23.66
2019-03-29T08:53:56.329Z,23.79
2019-03-29T08:56:30.010Z,23.94
2019-03-29T08:59:03.403Z,24.09
2019-03-29T09:01:37.414Z,24.29
2019-03-29T09:04:11.426Z,24.49
2019-03-29T09:06:53.474Z,24.68
2019-03-29T09:09:21.079Z,24.85
2019-03-29T09:11:55.119Z,24.97
2019-03-29T09:14:31.378Z,25.04
2019-03-29T09:17:04.007Z,25.11
2019-03-29T09:19:38.631Z,25.19
2019-03-29T09:22:12.030Z,25.28
2019-03-29T09:24:45.557Z,25.38
2019-03-29T09:27:19.101Z,25.50
2019-03-29T09:29:52.978Z,25.65
2019-03-29T09:32:26.759Z,25.81
2019-03-29T09:35:00.919Z,26.02
2019-03-29T09:37:34.675Z,26.26
2019-03-29T09:40:09.196Z,26.46
2019-03-29T09:42:42.529Z,26.65
2019-03-29T09:45:15.788Z,26.85
2019-03-29T09:47:49.240Z,27.04
2019-03-29T09:50:23.423Z,27.21
2019-03-29T09:52:56.892Z,27.32
2019-03-29T09:55:30.133Z,27.37
2019-03-29T09:58:03.911Z,27.38
2019-03-29T10:00:37.317Z,27.37
2019-03-29T10:03:12.566Z,27.39
2019-03-29T10:05:45.946Z,27.46
2019-03-29T10:08:20.199Z,27.51
2019-03-29T10:10:53.370Z,27.57
2019-03-29T10:13:27.248Z,27.66
2019-03-29T10:16:01.980Z,27.73
2019-03-29T10:18:37.462Z,27.77
2019-03-29T10:21:11.148Z,27.81
2019-03-29T10:23:44.445Z,27.88
2019-03-29T10:26:18.202Z,27.92
2019-03-29T10:28:51.893Z,27.95
2019-03-29T10:31:32.166Z,28.02
2019-03-29T10:34:01.286Z,28.06
2019-03-29T10:36:34.591Z,28.06
2019-03-29T10:39:13.441Z,28.04
2019-03-29T10:41:46.993Z,27.99
2019-03-29T10:44:20.573Z,27.96
2019-03-29T10:46:54.243Z,27.92
2019-03-29T10:49:27.823Z,27.91
2019-03-29T10:52:01.158Z,27.90
2019-03-29T10:54:34.815Z,27.85
2019-03-29T10:57:08.299Z,27.76
2019-03-29T10:59:41.802Z,27.62
2019-03-29T11:02:15.502Z,27.48
2019-03-29T11:04:49.416Z,27.34
2019-03-29T11:07:27.346Z,27.25
2019-03-29T11:10:01.022Z,27.15
2019-03-29T11:12:38.974Z,27.04
2019-03-29T11:15:12.864Z,26.90
2019-03-29T11:17:46.735Z,26.76
2019-03-29T11:20:20.372Z,26.62
2019-03-29T11:22:54.368Z,26.52
2019-03-29T11:25:28.603Z,26.46
2019-03-29T11:28:02.436Z,26.48
2019-03-29T11:30:42.524Z,26.59
2019-03-29T11:33:15.872Z,26.74
2019-03-29T11:35:49.898Z,26.87
2019-03-29T11:38:23.907Z,27.01
2019-03-29T11:40:57.225Z,27.18
2019-03-29T11:43:30.675Z,27.33
2019-03-29T11:46:05.219Z,27.40
2019-03-29T11:48:43.085Z,27.45
2019-03-29T11:51:19.531Z,27.45
2019-03-29T11:53:55.426Z,27.45
2019-03-29T11:56:28.599Z,27.48
2019-03-29T11:59:02.251Z,27.56
2019-03-29T12:01:35.764Z,27.64
2019-03-29T12:04:09.197Z,27.71
2019-03-29T12:06:45.184Z,27.74
2019-03-29T12:09:18.828Z,27.73
2019-03-29T12:11:52.257Z,27.70
2019-03-29T12:14:25.664Z,27.65
2019-03-29T12:16:59.226Z,27.57
2019-03-29T12:19:32.746Z,27.49
2019-03-29T12:22:06.072Z,27.40
2019-03-29T12:24:40.317Z,27.29
2019-03-29T12:27:13.503Z,27.18
2019-03-29T12:29:47.523Z,27.07
2019-03-29T12:32:20.728Z,26.98
2019-03-29T12:34:54.083Z,26.91
2019-03-29T12:37:27.360Z,26.84
2019-03-29T12:40:00.783Z,26.81
2019-03-29T12:42:34.120Z,26.74
2019-03-29T12:45:08.516Z,26.72
2019-03-29T12:47:41.889Z,26.77
2019-03-29T12:50:15.679Z,26.86
2019-03-29T12:52:49.520Z,26.93
2019-03-29T12:55:22.929Z,27.02
2019-03-29T12:57:56.149Z,27.15
2019-03-29T13:00:29.709Z,27.25
2019-03-29T13:03:03.226Z,27.34
2019-03-29T13:05:36.557Z,27.38
2019-03-29T13:08:09.937Z,27.37
2019-03-29T13:10:43.575Z,27.35
2019-03-29T13:13:19.501Z,27.33
2019-03-29T13:15:55.231Z,27.29
2019-03-29T13:18:28.589Z,27.29
2019-03-29T13:21:10.777Z,27.30
2019-03-29T13:23:44.595Z,27.28
2019-03-29T13:26:19.709Z,27.25
2019-03-29T13:28:53.130Z,27.20
2019-03-29T13:31:26.423Z,27.12
2019-03-29T13:33:59.786Z,27.02
2019-03-29T13:36:33.110Z,26.92
2019-03-29T13:39:08.701Z,26.84
2019-03-29T13:41:42.132Z,26.77
2019-03-29T13:44:23.699Z,26.73
2019-03-29T13:46:50.598Z,26.70
2019-03-29T13:49:23.873Z,26.67
2019-03-29T13:51:57.768Z,26.64
2019-03-29T13:54:31.633Z,26.66
2019-03-29T13:57:05.535Z,26.68
2019-03-29T13:59:38.882Z,26.71
2019-03-29T14:02:12.357Z,26.75
2019-03-29T14:04:46.155Z,26.77
2019-03-29T14:07:19.955Z,26.76
2019-03-29T14:09:53.289Z,26.75
2019-03-29T14:12:27.339Z,26.72
2019-03-29T14:15:01.339Z,26.67
2019-03-29T14:17:35.771Z,26.63
2019-03-29T14:20:10.100Z,26.61
2019-03-29T14:22:43.636Z,26.59
2019-03-29T14:25:17.472Z,26.57
2019-03-29T14:27:51.267Z,26.53
2019-03-29T14:30:26.491Z,26.49
2019-03-29T14:33:00.067Z,26.44
2019-03-29T14:35:33.455Z,26.40
2019-03-29T14:38:07.760Z,26.39
2019-03-29T14:40:41.207Z,26.37
2019-03-29T14:43:14.720Z,26.36
2019-03-29T14:45:48.421Z,26.34
2019-03-29T14:48:22.183Z,26.34
2019-03-29T14:50:55.629Z,26.34
2019-03-29T14:53:29.080Z,26.34
2019-03-29T14:56:04.841Z,26.32
2019-03-29T14:58:38.321Z,26.25
2019-03-29T15:01:11.836Z,26.16
2019-03-29T15:03:45.154Z,26.09
2019-03-29T15:06:18.531Z,26.04
2019-03-29T15:08:52.073Z,25.99
2019-03-29T15:11:25.410Z,25.95
2019-03-29T15:13:58.840Z,25.92
2019-03-29T15:16:32.525Z,25.89
2019-03-29T15:19:06.139Z,25.86
2019-03-29T15:21:39.615Z,25.85
2019-03-29T15:24:13.735Z,25.81
2019-03-29T15:26:47.344Z,25.80
2019-03-29T15:29:20.879Z,25.78
2019-03-29T15:31:54.514Z,25.76
2019-03-29T15:34:27.941Z,25.74
2019-03-29T15:37:01.353Z,25.70
2019-03-29T15:39:35.341Z,25.66
2019-03-29T15:42:08.867Z,25.65
2019-03-29T15:44:42.590Z,25.60
2019-03-29T15:47:17.018Z,25.56
2019-03-29T15:49:56.360Z,25.62
2019-03-29T15:52:25.965Z,25.86
2019-03-29T15:54:59.427Z,25.95
2019-03-29T15:57:33.666Z,25.96
2019-03-29T16:00:08.866Z,25.96
2019-03-29T16:02:42.611Z,25.93
2019-03-29T16:05:16.339Z,25.90
2019-03-29T16:07:49.603Z,25.87
2019-03-29T16:10:22.971Z,25.81
2019-03-29T16:12:56.457Z,25.80
2019-03-29T16:15:36.412Z,25.78
2019-03-29T16:18:04.842Z,25.75
2019-03-29T16:20:38.309Z,25.72
2019-03-29T16:23:14.258Z,25.68
2019-03-29T16:25:47.459Z,25.63
2019-03-29T16:28:21.933Z,25.58
2019-03-29T16:30:55.337Z,25.54
2019-03-29T16:33:30.307Z,25.51
2019-03-29T16:36:03.863Z,25.49
2019-03-29T16:38:37.215Z,25.47
2019-03-29T16:41:10.592Z,25.47
2019-03-29T16:43:44.190Z,25.46
2019-03-29T16:46:17.752Z,25.47
2019-03-29T16:48:51.045Z,25.45
2019-03-29T16:51:24.723Z,25.45
2019-03-29T16:53:58.351Z,25.45
2019-03-29T16:56:32.079Z,25.44
2019-03-29T16:59:05.422Z,25.44
2019-03-29T17:01:38.868Z,25.42
2019-03-29T17:04:12.224Z,25.38
2019-03-29T17:06:45.674Z,25.37
2019-03-29T17:09:19.029Z,25.37
2019-03-29T17:11:52.733Z,25.35
2019-03-29T17:14:26.518Z,25.35
2019-03-29T17:16:59.997Z,25.33
2019-03-29T17:19:33.379Z,25.31
2019-03-29T17:22:06.867Z,25.31
2019-03-29T17:24:56.085Z,25.30
2019-03-29T17:27:18.705Z,25.32
2019-03-29T17:29:52.308Z,25.34
2019-03-29T17:32:26.068Z,25.37
2019-03-29T17:34:59.479Z,25.39
2019-03-29T17:37:32.913Z,25.40
2019-03-29T17:40:07.795Z,25.40
2019-03-29T17:42:41.614Z,25.45
2019-03-29T17:45:15.090Z,25.49
2019-03-29T17:47:48.518Z,25.52
2019-03-29T17:50:25.144Z,25.55
2019-03-29T17:52:57.156Z,25.57
2019-03-29T17:55:31.924Z,25.57
2019-03-29T17:58:05.512Z,25.54
2019-03-29T18:00:38.912Z,25.54
2019-03-29T18:03:14.139Z,25.50
2019-03-29T18:05:47.454Z,25.50
2019-03-29T18:08:21.278Z,25.49
2019-03-29T18:10:54.531Z,25.49
2019-03-29T18:13:28.017Z,25.48
2019-03-29T18:16:01.322Z,25.46
2019-03-29T18:18:34.794Z,25.43
2019-03-29T18:21:08.254Z,25.41
2019-03-29T18:23:41.746Z,25.39
2019-03-29T18:26:15.419Z,25.38
2019-03-29T18:28:48.880Z,25.35
2019-03-29T18:31:23.149Z,25.33
2019-03-29T18:33:56.939Z,25.31
2019-03-29T18:36:30.303Z,25.30
2019-03-29T18:39:05.052Z,25.27
2019-03-29T18:41:58.653Z,25.25
2019-03-29T18:44:32.254Z,25.23
2019-03-29T18:47:05.644Z,25.21
2019-03-29T18:49:39.432Z,25.18
2019-03-29T18:52:12.884Z,25.14
2019-03-29T18:54:48.063Z,25.07
2019-03-29T18:57:21.772Z,25.01
2019-03-29T18:59:55.177Z,24.95
2019-03-29T19:02:28.449Z,24.91
2019-03-29T19:05:01.997Z,24.91
2019-03-29T19:07:35.588Z,24.90
2019-03-29T19:10:09.540Z,24.90
2019-03-29T19:12:42.936Z,24.88
2019-03-29T19:15:16.476Z,24.89
2019-03-29T19:17:50.439Z,24.89
2019-03-29T19:20:27.925Z,24.90
2019-03-29T19:22:58.885Z,24.92
2019-03-29T19:25:32.539Z,24.94
2019-03-29T19:28:06.067Z,24.97
2019-03-29T19:30:40.060Z,24.98
2019-03-29T19:33:13.353Z,24.98
2019-03-29T19:35:47.289Z,24.99
2019-03-29T19:38:20.748Z,24.99
2019-03-29T19:40:54.353Z,25.00
2019-03-29T19:43:27.845Z,25.00
2019-03-29T19:46:01.436Z,25.00
2019-03-29T19:48:34.844Z,25.01
2019-03-29T19:51:08.232Z,24.99
2019-03-29T19:53:41.976Z,24.99
2019-03-29T19:56:15.496Z,24.97
2019-03-29T19:58:48.961Z,24.95
2019-03-29T20:01:22.583Z,24.93
2019-03-29T20:03:56.437Z,24.93
2019-03-29T20:06:29.911Z,24.91
2019-03-29T20:09:03.473Z,24.90
2019-03-29T20:11:37.019Z,24.86
2019-03-29T20:14:10.243Z,24.83
2019-03-29T20:16:43.726Z,24.79
2019-03-29T20:19:20.059Z,24.72
2019-03-29T20:21:52.657Z,24.68
2019-03-29T20:24:26.056Z,24.58
2019-03-29T20:26:59.780Z,24.50
2019-03-29T20:29:33.094Z,24.40
2019-03-29T20:32:06.506Z,24.31
2019-03-29T20:34:40.251Z,24.22
2019-03-29T20:37:13.828Z,24.16
2019-03-29T20:39:47.421Z,24.08
2019-03-29T20:42:20.862Z,24.02
2019-03-29T20:44:54.302Z,23.96
2019-03-29T20:47:41.343Z,23.90
2019-03-29T20:50:05.049Z,23.85
2019-03-29T20:52:38.558Z,23.78
2019-03-29T20:55:11.848Z,23.71
2019-03-29T20:57:45.194Z,23.62
2019-03-29T21:00:20.274Z,23.53
2019-03-29T21:02:54.229Z,23.44
2019-03-29T21:05:27.795Z,23.36
2019-03-29T21:08:01.195Z,23.30
2019-03-29T21:10:34.537Z,23.26
2019-03-29T21:13:08.098Z,23.22
2019-03-29T21:15:41.441Z,23.17
2019-03-29T21:18:17.301Z,23.14
2019-03-29T21:20:50.219Z,23.11
2019-03-29T21:23:24.102Z,23.08
2019-03-29T21:25:57.277Z,23.04
2019-03-29T21:28:30.734Z,22.95
2019-03-29T21:31:06.323Z,22.85
2019-03-29T21:33:40.925Z,22.71
2019-03-29T21:36:14.234Z,22.54
2019-03-29T21:38:47.564Z,22.37
2019-03-29T21:41:20.812Z,22.23
2019-03-29T21:43:54.131Z,22.09
2019-03-29T21:46:27.384Z,21.99
2019-03-29T21:49:01.038Z,21.92
2019-03-29T21:51:34.306Z,21.85
2019-03-29T21:54:07.726Z,21.80
2019-03-29T21:56:41.022Z,21.75
2019-03-29T21:59:14.420Z,21.72
2019-03-29T22:01:47.688Z,21.68
2019-03-29T22:04:21.018Z,21.65
2019-03-29T22:06:54.474Z,21.64
2019-03-29T22:09:36.817Z,21.62
2019-03-29T22:12:02.622Z,21.60
2019-03-29T22:14:36.131Z,21.60
2019-03-29T22:17:09.424Z,21.59
2019-03-29T22:19:42.858Z,21.60
2019-03-29T22:22:16.125Z,21.64
2019-03-29T22:24:49.538Z,21.64
2019-03-29T22:27:22.791Z,21.63
2019-03-29T22:29:56.151Z,21.62
2019-03-29T22:32:29.635Z,21.64
2019-03-29T22:35:03.059Z,21.66
2019-03-29T22:37:36.400Z,21.65
2019-03-29T22:40:11.190Z,21.64
2019-03-29T22:42:44.416Z,21.63
2019-03-29T22:45:18.021Z,21.65
2019-03-29T22:47:51.275Z,21.68
2019-03-29T22:50:24.721Z,21.66
2019-03-29T22:52:57.978Z,21.67
2019-03-29T22:55:31.312Z,21.66
2019-03-29T22:58:05.391Z,21.65
2019-03-29T23:00:43.741Z,21.64
2019-03-29T23:03:17.685Z,21.64
2019-03-29T23:05:51.058Z,21.65
2019-03-29T23:08:25.590Z,21.64
2019-03-29T23:10:58.967Z,21.65
2019-03-29T23:13:32.888Z,21.66
2019-03-29T23:16:06.332Z,21.66
2019-03-29T23:18:39.767Z,21.66
2019-03-29T23:21:13.115Z,21.66
2019-03-29T23:23:47.179Z,21.66
2019-03-29T23:26:21.045Z,21.67
2019-03-29T23:28:54.333Z,21.71
2019-03-29T23:31:28.209Z,21.71
2019-03-29T23:34:01.471Z,21.72
2019-03-29T23:36:34.882Z,21.73
2019-03-29T23:39:08.770Z,21.72
2019-03-29T23:41:42.127Z,21.72
2019-03-29T23:44:15.379Z,21.75
2019-03-29T23:46:48.775Z,21.77
2019-03-29T23:49:22.151Z,21.79
2019-03-29T23:51:55.815Z,21.79
2019-03-29T23:54:29.669Z,21.81
2019-03-29T23:57:03.158Z,21.83
2019-03-29T23:59:36.393Z,21.86
